Time;durP1;ratioP1;P1;durP2;ratioP2;P2;SDS_P1;SDS_P2;PMS_P1;PMS_P2;Temp;Humidity;BMP_temperature;BMP_pressure;BME280_temperature;BME280_humidity;BME280_pressure;Samples;Min_cycle;Max_cycle;Signal;HPM_P1;HPM_P2
2024/02/14 00:02:49;;;;;;;;;;;;;;;;;;6294234;28;20307;-80
2024/02/14 00:05:49;;;;;;;;;;;;;;;;;;6296590;28;19963;-80
2024/02/14 00:08:49;;;;;;;;;;;;;;;;;;6294052;28;20024;-78
2024/02/14 00:11:49;;;;;;;;;;;;;;;;;;6295029;28;20004;-79
2024/02/14 00:14:49;;;;;;;;;;;;;;;;;;6299240;28;19967;-78
2024/02/14 00:17:50;;;;;;;;;;;;;;;;;;6303503;28;19959;-78
2024/02/14 00:20:50;;;;;;;;;;;;;;;;;;6304216;28;20373;-78
2024/02/14 00:23:50;;;;;;;;;;;;;;;;;;6315059;28;20287;-78
2024/02/14 00:26:50;;;;;;;;;;;;;;;;;;6303303;28;20296;-78
2024/02/14 00:29:51;;;;;;;;;;;;;;;;;;6300294;28;19915;-78
2024/02/14 00:32:51;;;;;;;;;;;;;;;;;;6303716;28;20023;-78
2024/02/14 00:35:51;;;;;;;;;;;;;;;;;;6300405;28;19915;-78
2024/02/14 00:38:51;;;;;;;;;;;;;;;;;;6313735;28;20002;-78
2024/02/14 00:41:52;;;;;;;;;;;;;;;;;;6304210;28;20072;-78
2024/02/14 00:44:52;;;;;;;;;;;;;;;;;;6300003;28;20413;-78
2024/02/14 00:47:53;;;;;;;;;;;;;;;;;;6301476;28;19916;-78
2024/02/14 00:50:54;;;;;;;;;;;;;;;;;;6305154;28;19908;-78
2024/02/14 00:53:54;;;;;;;;;;;;;;;;;;6299331;28;19915;-78
2024/02/14 00:56:54;;;;;;;;;;;;;;;;;;6300894;28;20003;-78
2024/02/14 00:59:56;;;;;;;;;;;;;;;;;;6303837;28;20433;-78
2024/02/14 01:02:57;;;;;;;;;;;;;;;;;;6302928;28;20334;-78
2024/02/14 01:05:57;;;;;;;;;;;;;;;;;;6304237;28;19908;-78
2024/02/14 01:08:57;;;;;;;;;;;;;;;;;;6310142;28;19969;-78
2024/02/14 01:11:58;;;;;;;;;;;;;;;;;;6300114;28;19912;-78
2024/02/14 01:14:58;;;;;;;;;;;;;;;;;;6301415;28;19931;-78
2024/02/14 01:17:58;;;;;;;;;;;;;;;;;;6297631;28;19916;-78
2024/02/14 01:20:58;;;;;;;;;;;;;;;;;;6296942;28;19924;-78
2024/02/14 01:23:58;;;;;;;;;;;;;;;;;;6300801;28;19966;-78
2024/02/14 01:26:59;;;;;;;;;;;;;;;;;;6302132;28;19915;-79
2024/02/14 01:29:59;;;;;;;;;;;;;;;;;;6297294;28;19912;-79
2024/02/14 01:33:00;;;;;;;;;;;;;;;;;;6297547;28;19912;-80
2024/02/14 01:36:00;;;;;;;;;;;;;;;;;;6300501;28;19908;-80
2024/02/14 01:39:00;;;;;;;;;;;;;;;;;;6312137;28;19916;-80
2024/02/14 01:42:00;;;;;;;;;;;;;;;;;;6294710;28;19908;-80
2024/02/14 01:45:02;;;;;;;;;;;;;;;;;;6310019;28;19909;-80
2024/02/14 01:48:03;;;;;;;;;;;;;;;;;;6294851;28;19923;-80
2024/02/14 01:51:03;;;;;;;;;;;;;;;;;;6310779;28;19962;-80
2024/02/14 01:54:03;;;;;;;;;;;;;;;;;;6300165;28;20289;-80
2024/02/14 01:57:03;;;;;;;;;;;;;;;;;;6293735;28;19955;-80
2024/02/14 02:00:08;;;;;;;;;;;;;;;;;;6294656;28;20062;-80
2024/02/14 02:03:08;;;;;;;;;;;;;;;;;;6297338;28;19908;-80
2024/02/14 02:06:09;;;;;;;;;;;;;;;;;;6293618;28;19908;-80
2024/02/14 02:09:09;;;;;;;;;;;;;;;;;;6298646;28;19964;-80
2024/02/14 02:12:09;;;;;;;;;;;;;;;;;;6296537;28;19919;-80
2024/02/14 02:15:12;;;;;;;;;;;;;;;;;;6309646;28;19915;-81
2024/02/14 02:18:13;;;;;;;;;;;;;;;;;;6295151;28;19995;-80
2024/02/14 02:21:13;;;;;;;;;;;;;;;;;;6297505;28;20293;-79
2024/02/14 02:24:13;;;;;;;;;;;;;;;;;;6301365;28;20053;-79
2024/02/14 02:27:16;;;;;;;;;;;;;;;;;;6310641;28;19912;-79
2024/02/14 02:30:16;;;;;;;;;;;;;;;;;;6307303;28;20400;-79
2024/02/14 02:33:16;;;;;;;;;;;;;;;;;;6301039;28;22717;-79
2024/02/14 02:36:16;;;;;;;;;;;;;;;;;;6302528;28;19908;-79
2024/02/14 02:39:16;;;;;;;;;;;;;;;;;;6299766;28;19931;-79
2024/02/14 02:42:18;;;;;;;;;;;;;;;;;;6296717;28;19909;-79
2024/02/14 02:45:18;;;;;;;;;;;;;;;;;;6300599;28;20388;-79
2024/02/14 02:48:20;;;;;;;;;;;;;;;;;;6296156;28;19936;-79
2024/02/14 02:51:20;;;;;;;;;;;;;;;;;;6294398;28;19912;-79
2024/02/14 02:54:23;;;;;;;;;;;;;;;;;;6294195;28;20964;-79
2024/02/14 02:57:23;;;;;;;;;;;;;;;;;;6292912;28;20377;-79
2024/02/14 03:00:23;;;;;;;;;;;;;;;;;;6312468;28;19935;-79
2024/02/14 03:03:25;;;;;;;;;;;;;;;;;;6291364;28;19974;-79
2024/02/14 03:06:28;;;;;;;;;;;;;;;;;;6295771;28;20129;-79
2024/02/14 03:09:28;;;;;;;;;;;;;;;;;;6297840;28;19908;-79
2024/02/14 03:12:30;;;;;;;;;;;;;;;;;;6292358;28;20007;-79
2024/02/14 03:15:30;;;;;;;;;;;;;;;;;;6292679;28;19923;-79
2024/02/14 03:18:30;;;;;;;;;;;;;;;;;;6296151;28;20195;-79
2024/02/14 03:21:32;;;;;;;;;;;;;;;;;;6294918;28;19908;-79
2024/02/14 03:24:35;;;;;;;;;;;;;;;;;;6307865;28;20146;-79
2024/02/14 03:27:36;;;;;;;;;;;;;;;;;;6296968;28;20418;-79
2024/02/14 03:30:39;;;;;;;;;;;;;;;;;;6292704;28;19962;-79
2024/02/14 03:33:39;;;;;;;;;;;;;;;;;;6295207;28;19908;-79
2024/02/14 03:36:39;;;;;;;;;;;;;;;;;;6295374;28;19951;-79
2024/02/14 03:39:39;;;;;;;;;;;;;;;;;;6309757;28;20003;-79
2024/02/14 03:42:39;;;;;;;;;;;;;;;;;;6302826;28;19991;-79
2024/02/14 03:45:40;;;;;;;;;;;;;;;;;;6303399;28;19904;-79
2024/02/14 03:48:41;;;;;;;;;;;;;;;;;;6311027;28;19940;-79
2024/02/14 03:51:41;;;;;;;;;;;;;;;;;;6322754;28;19973;-79
2024/02/14 03:54:41;;;;;;;;;;;;;;;;;;6333491;28;19970;-79
2024/02/14 03:57:45;;;;;;;;;;;;;;;;;;6304090;28;19957;-79
2024/02/14 04:00:48;;;;;;;;;;;;;;;;;;6301534;28;20369;-79
2024/02/14 04:03:48;;;;;;;;;;;;;;;;;;6292686;28;19908;-79
2024/02/14 04:06:48;;;;;;;;;;;;;;;;;;6293255;28;20284;-79
2024/02/14 04:09:48;;;;;;;;;;;;;;;;;;6298420;28;19931;-79
2024/02/14 04:12:49;;;;;;;;;;;;;;;;;;6290813;28;20270;-79
2024/02/14 04:15:49;;;;;;;;;;;;;;;;;;6295584;28;20320;-79
2024/02/14 04:18:49;;;;;;;;;;;;;;;;;;6290732;28;20327;-79
2024/02/14 04:21:50;;;;;;;;;;;;;;;;;;6293260;28;19909;-79
2024/02/14 04:24:50;;;;;;;;;;;;;;;;;;6298642;28;19959;-79
2024/02/14 04:27:50;;;;;;;;;;;;;;;;;;6295510;28;19912;-79
2024/02/14 04:30:50;;;;;;;;;;;;;;;;;;6293970;28;19909;-79
2024/02/14 04:33:52;;;;;;;;;;;;;;;;;;6293646;28;19916;-79
2024/02/14 04:36:52;;;;;;;;;;;;;;;;;;6296628;28;20335;-79
2024/02/14 04:39:52;;;;;;;;;;;;;;;;;;6298612;28;19922;-79
2024/02/14 04:42:53;;;;;;;;;;;;;;;;;;6296516;28;19916;-79
2024/02/14 04:45:53;;;;;;;;;;;;;;;;;;6294326;28;20385;-79
2024/02/14 04:48:53;;;;;;;;;;;;;;;;;;6294158;28;20030;-79
2024/02/14 04:51:53;;;;;;;;;;;;;;;;;;6294089;28;19908;-79
2024/02/14 04:54:53;;;;;;;;;;;;;;;;;;6295852;28;19912;-79
2024/02/14 04:57:54;;;;;;;;;;;;;;;;;;6294747;28;19923;-79
2024/02/14 05:00:57;;;;;;;;;;;;;;;;;;6318837;28;19916;-79
2024/02/14 05:03:57;;;;;;;;;;;;;;;;;;6292310;28;20365;-79
2024/02/14 05:06:57;;;;;;;;;;;;;;;;;;6298849;28;19922;-79
2024/02/14 05:09:57;;;;;;;;;;;;;;;;;;6298535;28;19908;-79
2024/02/14 05:12:58;;;;;;;;;;;;;;;;;;6306250;28;19923;-79
2024/02/14 05:15:58;;;;;;;;;;;;;;;;;;6312335;28;19913;-79
2024/02/14 05:18:58;;;;;;;;;;;;;;;;;;6300017;28;19916;-79
2024/02/14 05:21:58;;;;;;;;;;;;;;;;;;6299250;28;19955;-79
2024/02/14 05:24:59;;;;;;;;;;;;;;;;;;6299734;28;19995;-79
2024/02/14 05:28:00;;;;;;;;;;;;;;;;;;6301333;28;19912;-79
2024/02/14 05:31:00;;;;;;;;;;;;;;;;;;6313572;28;19931;-79
2024/02/14 05:34:00;;;;;;;;;;;;;;;;;;6297067;28;19908;-79
2024/02/14 05:37:00;;;;;;;;;;;;;;;;;;6300142;28;19908;-79
2024/02/14 05:40:00;;;;;;;;;;;;;;;;;;6301092;28;20280;-79
2024/02/14 05:43:01;;;;;;;;;;;;;;;;;;6305635;28;20258;-79
2024/02/14 05:46:01;;;;;;;;;;;;;;;;;;6301056;28;19915;-79
2024/02/14 05:49:01;;;;;;;;;;;;;;;;;;6304685;28;21367;-80
2024/02/14 05:52:01;;;;;;;;;;;;;;;;;;6300508;28;20414;-80
2024/02/14 05:55:01;;;;;;;;;;;;;;;;;;6298651;28;19916;-80
2024/02/14 05:58:01;;;;;;;;;;;;;;;;;;6302409;28;19908;-80
2024/02/14 06:01:01;;;;;;;;;;;;;;;;;;6299391;28;19917;-79
2024/02/14 06:04:02;;;;;;;;;;;;;;;;;;6299759;28;20390;-80
2024/02/14 06:07:02;;;;;;;;;;;;;;;;;;6297664;28;19912;-80
2024/02/14 06:10:02;;;;;;;;;;;;;;;;;;6299546;28;20662;-79
2024/02/14 06:13:02;;;;;;;;;;;;;;;;;;6301318;28;19959;-80
2024/02/14 06:16:03;;;;;;;;;;;;;;;;;;6311799;28;19998;-80
2024/02/14 06:19:05;;;;;;;;;;;;;;;;;;6297043;28;19926;-80
2024/02/14 06:22:06;;;;;;;;;;;;;;;;;;5949292;28;9999889;-80
2024/02/14 06:25:06;;;;;;;;;;;;;;;;;;6318056;28;19915;-80
2024/02/14 06:28:06;;;;;;;;;;;;;;;;;;6295231;28;19953;-80
2024/02/14 06:31:06;;;;;;;;;;;;;;;;;;6294558;28;19917;-80
2024/02/14 06:34:08;;;;;;;;;;;;;;;;;;6297926;28;19909;-80
2024/02/14 06:37:08;;;;;;;;;;;;;;;;;;6298853;28;19944;-80
2024/02/14 06:40:08;;;;;;;;;;;;;;;;;;6311851;28;19923;-80
2024/02/14 06:43:08;;;;;;;;;;;;;;;;;;6296335;28;20014;-78
2024/02/14 06:46:08;;;;;;;;;;;;;;;;;;6307517;28;19962;-78
2024/02/14 06:49:08;;;;;;;;;;;;;;;;;;6299475;28;19981;-78
2024/02/14 06:52:09;;;;;;;;;;;;;;;;;;6297346;28;20258;-78
2024/02/14 06:55:09;;;;;;;;;;;;;;;;;;6296800;28;19908;-78
2024/02/14 06:58:09;;;;;;;;;;;;;;;;;;6295501;28;19961;-78
2024/02/14 07:01:11;;;;;;;;;;;;;;;;;;6301107;28;19938;-78
2024/02/14 07:04:12;;;;;;;;;;;;;;;;;;6298256;28;19919;-78
2024/02/14 07:07:12;;;;;;;;;;;;;;;;;;6301658;28;19916;-78
2024/02/14 07:10:12;;;;;;;;;;;;;;;;;;6296938;28;19908;-78
2024/02/14 07:13:13;;;;;;;;;;;;;;;;;;6295092;28;19920;-78
2024/02/14 07:16:14;;;;;;;;;;;;;;;;;;6295460;28;19916;-78
2024/02/14 07:19:14;;;;;;;;;;;;;;;;;;6298664;28;19920;-78
2024/02/14 07:22:15;;;;;;;;;;;;;;;;;;6293600;28;19912;-77
2024/02/14 07:25:15;;;;;;;;;;;;;;;;;;6294922;28;19908;-77
2024/02/14 07:28:17;;;;;;;;;;;;;;;;;;6296089;28;19931;-77
2024/02/14 07:31:17;;;;;;;;;;;;;;;;;;6296513;28;20006;-77
2024/02/14 07:34:17;;;;;;;;;;;;;;;;;;6297584;28;19916;-78
2024/02/14 07:37:19;;;;;;;;;;;;;;;;;;6296186;28;20275;-78
2024/02/14 07:40:19;;;;;;;;;;;;;;;;;;6311660;28;19924;-77
2024/02/14 07:43:19;;;;;;;;;;;;;;;;;;6296341;28;19916;-77
2024/02/14 07:46:20;;;;;;;;;;;;;;;;;;6296896;28;20292;-78
2024/02/14 07:49:20;;;;;;;;;;;;;;;;;;6297057;28;19916;-77
2024/02/14 07:52:21;;;;;;;;;;;;;;;;;;6297043;28;19908;-77
2024/02/14 07:55:22;;;;;;;;;;;;;;;;;;6312301;28;19954;-77
2024/02/14 07:58:22;;;;;;;;;;;;;;;;;;6312136;28;20262;-77
2024/02/14 08:01:22;;;;;;;;;;;;;;;;;;6296948;28;20380;-77
2024/02/14 08:04:22;;;;;;;;;;;;;;;;;;6293566;28;19908;-79
2024/02/14 08:07:22;;;;;;;;;;;;;;;;;;6295850;28;20475;-80
2024/02/14 08:10:23;;;;;;;;;;;;;;;;;;6310687;28;19908;-79
2024/02/14 08:13:23;;;;;;;;;;;;;;;;;;6330895;28;19919;-79
2024/02/14 08:16:23;;;;;;;;;;;;;;;;;;6316792;28;19916;-79
2024/02/14 08:19:23;;;;;;;;;;;;;;;;;;6321177;28;20032;-78
2024/02/14 08:22:23;;;;;;;;;;;;;;;;;;6317711;28;19916;-79
2024/02/14 08:25:23;;;;;;;;;;;;;;;;;;6309302;28;19962;-79
2024/02/14 08:28:23;;;;;;;;;;;;;;;;;;6306761;28;19916;-80
2024/02/14 08:31:24;;;;;;;;;;;;;;;;;;6324726;28;19903;-80
2024/02/14 08:34:24;;;;;;;;;;;;;;;;;;6320519;28;20280;-81
2024/02/14 08:37:24;;;;;;;;;;;;;;;;;;6310035;28;19991;-80
2024/02/14 08:40:24;;;;;;;;;;;;;;;;;;6317530;28;19924;-80
2024/02/14 08:43:25;;;;;;;;;;;;;;;;;;6314313;28;19908;-80
2024/02/14 08:46:25;;;;;;;;;;;;;;;;;;6316102;28;19912;-80
2024/02/14 08:49:25;;;;;;;;;;;;;;;;;;6310470;28;19913;-80
2024/02/14 08:52:26;;;;;;;;;;;;;;;;;;6304623;28;19959;-80
2024/02/14 08:55:32;;;;;;;;;;;;;;;;;;6036240;28;10000193;-80
2024/02/14 08:58:35;;;;;;;;;;;;;;;;;;6321121;28;19908;-81
2024/02/14 09:01:36;;;;;;;;;;;;;;;;;;6318635;28;19913;-81
2024/02/14 09:04:36;;;;;;;;;;;;;;;;;;6302533;28;19954;-81
2024/02/14 09:07:36;;;;;;;;;;;;;;;;;;6312856;28;19908;-81
2024/02/14 09:10:36;;;;;;;;;;;;;;;;;;6327429;28;19915;-81
2024/02/14 09:13:37;;;;;;;;;;;;;;;;;;6313725;28;19922;-81
2024/02/14 09:16:38;;;;;;;;;;;;;;;;;;6313576;28;19912;-81
2024/02/14 09:19:38;;;;;;;;;;;;;;;;;;6316114;28;19974;-80
2024/02/14 09:22:38;;;;;;;;;;;;;;;;;;6314530;28;19915;-81
2024/02/14 09:25:38;;;;;;;;;;;;;;;;;;6310453;28;19923;-81
2024/02/14 09:28:38;;;;;;;;;;;;;;;;;;6320782;28;19904;-81
2024/02/14 09:31:39;;;;;;;;;;;;;;;;;;6315007;28;20313;-80
2024/02/14 09:34:39;;;;;;;;;;;;;;;;;;6325831;28;19904;-78
2024/02/14 09:37:39;;;;;;;;;;;;;;;;;;6326193;28;19926;-79
2024/02/14 09:40:39;;;;;;;;;;;;;;;;;;6303602;28;19912;-75
2024/02/14 09:43:40;;;;;;;;;;;;;;;;;;6306025;28;19908;-77
2024/02/14 09:46:41;;;;;;;;;;;;;;;;;;6323076;28;19930;-74
2024/02/14 09:49:41;;;;;;;;;;;;;;;;;;6311621;28;19913;-76
2024/02/14 09:52:41;;;;;;;;;;;;;;;;;;6300139;28;19955;-76
2024/02/14 09:55:41;;;;;;;;;;;;;;;;;;6308365;28;20003;-76
2024/02/14 09:58:41;;;;;;;;;;;;;;;;;;6317082;28;19908;-76
2024/02/14 10:01:42;;;;;;;;;;;;;;;;;;6318740;28;19912;-76
2024/02/14 10:04:42;;;;;;;;;;;;;;;;;;6319946;28;19975;-80
2024/02/14 10:07:43;;;;;;;;;;;;;;;;;;6315522;28;19908;-79
2024/02/14 10:10:43;;;;;;;;;;;;;;;;;;6321112;28;19931;-80
2024/02/14 10:13:45;;;;;;;;;;;;;;;;;;6321099;28;19920;-79
2024/02/14 10:16:45;;;;;;;;;;;;;;;;;;6319430;28;20303;-79
2024/02/14 10:19:45;;;;;;;;;;;;;;;;;;6306640;28;19912;-77
2024/02/14 10:22:45;;;;;;;;;;;;;;;;;;6324505;28;20003;-77
2024/02/14 10:25:46;;;;;;;;;;;;;;;;;;6322670;28;19995;-77
2024/02/14 10:28:46;;;;;;;;;;;;;;;;;;6315018;28;20279;-77
2024/02/14 10:31:46;;;;;;;;;;;;;;;;;;6314594;28;19915;-77
2024/02/14 10:34:46;;;;;;;;;;;;;;;;;;6317468;28;19917;-77
2024/02/14 10:37:46;;;;;;;;;;;;;;;;;;6307810;28;19935;-77
2024/02/14 10:40:46;;;;;;;;;;;;;;;;;;6312698;28;19938;-77
2024/02/14 10:43:47;;;;;;;;;;;;;;;;;;6320672;28;19915;-78
2024/02/14 10:46:47;;;;;;;;;;;;;;;;;;6321435;28;19907;-77
2024/02/14 10:49:47;;;;;;;;;;;;;;;;;;6318267;28;20318;-77
2024/02/14 10:52:48;;;;;;;;;;;;;;;;;;6323670;28;19915;-78
2024/02/14 10:55:48;;;;;;;;;;;;;;;;;;6317611;28;19908;-77
2024/02/14 10:58:49;;;;;;;;;;;;;;;;;;6310352;28;19938;-77
2024/02/14 11:01:49;;;;;;;;;;;;;;;;;;6313447;28;19927;-77
2024/02/14 11:04:53;;;;;;;;;;;;;;;;;;6307847;28;19908;-77
2024/02/14 11:07:53;;;;;;;;;;;;;;;;;;6319279;28;19916;-77
2024/02/14 11:10:53;;;;;;;;;;;;;;;;;;6309695;28;20284;-76
2024/02/14 11:13:53;;;;;;;;;;;;;;;;;;6313556;28;19939;-76
2024/02/14 11:16:53;;;;;;;;;;;;;;;;;;6299866;28;19924;-77
2024/02/14 11:19:53;;;;;;;;;;;;;;;;;;6315303;28;19947;-78
2024/02/14 11:22:54;;;;;;;;;;;;;;;;;;6323852;28;19988;-77
2024/02/14 11:25:54;;;;;;;;;;;;;;;;;;6323564;28;19904;-78
2024/02/14 11:28:55;;;;;;;;;;;;;;;;;;6322599;28;19908;-76
2024/02/14 11:31:55;;;;;;;;;;;;;;;;;;6314200;28;19908;-77
2024/02/14 11:34:58;;;;;;;;;;;;;;;;;;6301041;28;19908;-78
2024/02/14 11:38:00;;;;;;;;;;;;;;;;;;6322845;28;20383;-78
2024/02/14 11:41:01;;;;;;;;;;;;;;;;;;6339466;28;19927;-78
2024/02/14 11:44:05;;;;;;;;;;;;;;;;;;6347144;28;19903;-78
2024/02/14 11:47:05;;;;;;;;;;;;;;;;;;6347718;28;19910;-80
2024/02/14 11:50:05;;;;;;;;;;;;;;;;;;6306153;28;19908;-79
2024/02/14 11:53:08;;;;;;;;;;;;;;;;;;6305561;28;19908;-79
2024/02/14 11:56:08;;;;;;;;;;;;;;;;;;6343478;28;20348;-80
2024/02/14 11:59:11;;;;;;;;;;;;;;;;;;6335905;28;20365;-79
2024/02/14 12:02:12;;;;;;;;;;;;;;;;;;6305589;28;19956;-77
2024/02/14 12:05:14;;;;;;;;;;;;;;;;;;6321402;28;20352;-77
2024/02/14 12:08:14;;;;;;;;;;;;;;;;;;6315850;28;20384;-77
2024/02/14 12:11:14;;;;;;;;;;;;;;;;;;6307495;28;19912;-77
2024/02/14 12:14:14;;;;;;;;;;;;;;;;;;6332294;28;19926;-77
2024/02/14 12:17:15;;;;;;;;;;;;;;;;;;6335950;28;19915;-77
2024/02/14 12:20:16;;;;;;;;;;;;;;;;;;6319913;28;19943;-77
2024/02/14 12:23:19;;;;;;;;;;;;;;;;;;6321083;28;19943;-76
2024/02/14 12:26:19;;;;;;;;;;;;;;;;;;6310526;28;19904;-77
2024/02/14 12:29:19;;;;;;;;;;;;;;;;;;6302227;28;20289;-76
2024/02/14 12:32:20;;;;;;;;;;;;;;;;;;6332501;28;19904;-77
2024/02/14 12:35:20;;;;;;;;;;;;;;;;;;6322064;28;19908;-77
2024/02/14 12:38:20;;;;;;;;;;;;;;;;;;6305185;28;19904;-76
2024/02/14 12:41:21;;;;;;;;;;;;;;;;;;6320986;28;20326;-76
2024/02/14 12:44:21;;;;;;;;;;;;;;;;;;6319859;28;19951;-76
2024/02/14 12:47:22;;;;;;;;;;;;;;;;;;6321068;28;20289;-77
2024/02/14 12:50:22;;;;;;;;;;;;;;;;;;6317292;28;20006;-76
2024/02/14 12:53:22;;;;;;;;;;;;;;;;;;6322621;28;19971;-77
2024/02/14 12:56:23;;;;;;;;;;;;;;;;;;6315566;28;20011;-77
2024/02/14 12:59:23;;;;;;;;;;;;;;;;;;6320561;28;19919;-74
2024/02/14 13:02:24;;;;;;;;;;;;;;;;;;6319132;28;19912;-74
2024/02/14 13:05:25;;;;;;;;;;;;;;;;;;6321409;28;19912;-75
2024/02/14 13:08:26;;;;;;;;;;;;;;;;;;6322727;28;19986;-74
2024/02/14 13:11:26;;;;;;;;;;;;;;;;;;6322177;28;20393;-74
2024/02/14 13:14:26;;;;;;;;;;;;;;;;;;6318323;28;19944;-74
2024/02/14 13:17:27;;;;;;;;;;;;;;;;;;6321270;28;19908;-74
2024/02/14 13:20:27;;;;;;;;;;;;;;;;;;6305871;28;20363;-74
2024/02/14 13:23:28;;;;;;;;;;;;;;;;;;6295996;28;19905;-74
2024/02/14 13:26:28;;;;;;;;;;;;;;;;;;6309954;28;19904;-74
2024/02/14 13:29:29;;;;;;;;;;;;;;;;;;6302308;28;19904;-74
2024/02/14 13:32:29;;;;;;;;;;;;;;;;;;6337711;28;19910;-74
2024/02/14 13:35:30;;;;;;;;;;;;;;;;;;6350679;28;20284;-74
2024/02/14 13:38:30;;;;;;;;;;;;;;;;;;6351695;28;20380;-74
2024/02/14 13:41:30;;;;;;;;;;;;;;;;;;6341028;28;19986;-74
2024/02/14 13:44:30;;;;;;;;;;;;;;;;;;6324723;28;20280;-74
2024/02/14 13:47:31;;;;;;;;;;;;;;;;;;6323797;28;20387;-74
2024/02/14 13:50:31;;;;;;;;;;;;;;;;;;6325299;28;19958;-73
2024/02/14 13:53:31;;;;;;;;;;;;;;;;;;6322571;28;19950;-74
2024/02/14 13:56:31;;;;;;;;;;;;;;;;;;6321823;28;19915;-74
2024/02/14 13:59:32;;;;;;;;;;;;;;;;;;6310784;28;19920;-73
2024/02/14 14:02:32;;;;;;;;;;;;;;;;;;6324480;28;19911;-74
2024/02/14 14:05:32;;;;;;;;;;;;;;;;;;6324315;28;19939;-74
2024/02/14 14:08:32;;;;;;;;;;;;;;;;;;6325370;28;19904;-74
2024/02/14 14:11:32;;;;;;;;;;;;;;;;;;6324038;28;19912;-74
2024/02/14 14:14:32;;;;;;;;;;;;;;;;;;6344363;28;19915;-74
2024/02/14 14:17:33;;;;;;;;;;;;;;;;;;6333892;28;19908;-74
2024/02/14 14:20:33;;;;;;;;;;;;;;;;;;6321841;28;19920;-74
2024/02/14 14:23:33;;;;;;;;;;;;;;;;;;6324991;28;19904;-74
2024/02/14 14:26:34;;;;;;;;;;;;;;;;;;6310958;28;19912;-74
2024/02/14 14:29:35;;;;;;;;;;;;;;;;;;6298551;28;20380;-74
2024/02/14 14:32:35;;;;;;;;;;;;;;;;;;6323843;28;19904;-74
2024/02/14 14:35:35;;;;;;;;;;;;;;;;;;6349856;28;19946;-74
2024/02/14 14:38:35;;;;;;;;;;;;;;;;;;6323659;28;20376;-74
2024/02/14 14:41:36;;;;;;;;;;;;;;;;;;6324878;28;19912;-74
2024/02/14 14:44:36;;;;;;;;;;;;;;;;;;6323299;28;19957;-73
2024/02/14 14:47:37;;;;;;;;;;;;;;;;;;6320965;28;19916;-74
2024/02/14 14:50:37;;;;;;;;;;;;;;;;;;6304166;28;20334;-74
2024/02/14 14:53:37;;;;;;;;;;;;;;;;;;6323696;28;19907;-74
2024/02/14 14:56:38;;;;;;;;;;;;;;;;;;6319295;28;19908;-73
2024/02/14 14:59:38;;;;;;;;;;;;;;;;;;6310567;28;19916;-74
2024/02/14 15:02:39;;;;;;;;;;;;;;;;;;6323360;28;19904;-74
2024/02/14 15:05:39;;;;;;;;;;;;;;;;;;6323583;28;19908;-74
2024/02/14 15:08:39;;;;;;;;;;;;;;;;;;6323841;28;19908;-73
2024/02/14 15:11:39;;;;;;;;;;;;;;;;;;6319847;28;19939;-74
2024/02/14 15:14:39;;;;;;;;;;;;;;;;;;6341920;28;19955;-74
2024/02/14 15:17:40;;;;;;;;;;;;;;;;;;6345321;28;19939;-74
2024/02/14 15:20:40;;;;;;;;;;;;;;;;;;6308612;28;19962;-76
2024/02/14 15:23:40;;;;;;;;;;;;;;;;;;6301654;28;19954;-76
2024/02/14 15:26:49;;;;;;;;;;;;;;;;;;6312147;28;19904;-76
2024/02/14 15:33:23;;;;;;;;;;;;;;;;;;6323621;28;19904;-76
2024/02/14 15:36:23;;;;;;;;;;;;;;;;;;6297502;28;20319;-76
2024/02/14 15:39:23;;;;;;;;;;;;;;;;;;6297959;28;20372;-76
2024/02/14 15:42:23;;;;;;;;;;;;;;;;;;6307439;28;19908;-76
2024/02/14 15:45:23;;;;;;;;;;;;;;;;;;6319023;28;19908;-76
2024/02/14 15:48:29;;;;;;;;;;;;;;;;;;6319703;28;19977;-76
2024/02/14 15:51:30;;;;;;;;;;;;;;;;;;6322920;28;19904;-76
2024/02/14 15:54:30;;;;;;;;;;;;;;;;;;6323147;28;19965;-76
2024/02/14 15:57:30;;;;;;;;;;;;;;;;;;6322581;28;20276;-76
2024/02/14 16:00:31;;;;;;;;;;;;;;;;;;6321309;28;19915;-76
2024/02/14 16:03:32;;;;;;;;;;;;;;;;;;6311288;28;19954;-76
2024/02/14 16:06:34;;;;;;;;;;;;;;;;;;6315132;28;19908;-76
2024/02/14 16:09:36;;;;;;;;;;;;;;;;;;6322521;28;19939;-76
2024/02/14 16:12:36;;;;;;;;;;;;;;;;;;6321629;28;19916;-76
2024/02/14 16:15:37;;;;;;;;;;;;;;;;;;6318716;28;19930;-76
2024/02/14 16:18:37;;;;;;;;;;;;;;;;;;6322205;28;19949;-76
2024/02/14 16:21:38;;;;;;;;;;;;;;;;;;6299519;28;20312;-76
2024/02/14 16:24:39;;;;;;;;;;;;;;;;;;6331500;28;19904;-76
2024/02/14 16:27:39;;;;;;;;;;;;;;;;;;6321399;28;19904;-76
2024/02/14 16:30:39;;;;;;;;;;;;;;;;;;6320855;28;19911;-74
2024/02/14 16:33:40;;;;;;;;;;;;;;;;;;6321792;28;19999;-73
2024/02/14 16:36:40;;;;;;;;;;;;;;;;;;6318297;28;19908;-74
2024/02/14 16:39:40;;;;;;;;;;;;;;;;;;6297934;28;19913;-73
2024/02/14 16:42:40;;;;;;;;;;;;;;;;;;6321520;28;19910;-73
2024/02/14 16:45:40;;;;;;;;;;;;;;;;;;6300186;28;19909;-73
2024/02/14 16:48:40;;;;;;;;;;;;;;;;;;6312758;28;19919;-73
2024/02/14 16:51:41;;;;;;;;;;;;;;;;;;6297163;28;19909;-74
2024/02/14 16:54:41;;;;;;;;;;;;;;;;;;6309643;28;19908;-74
2024/02/14 16:57:41;;;;;;;;;;;;;;;;;;6320743;28;19915;-74
2024/02/14 17:00:41;;;;;;;;;;;;;;;;;;6300656;28;19912;-74
2024/02/14 17:03:42;;;;;;;;;;;;;;;;;;6306562;28;19908;-74
2024/02/14 17:06:42;;;;;;;;;;;;;;;;;;6320743;28;19916;-74
2024/02/14 17:09:42;;;;;;;;;;;;;;;;;;6301783;28;19916;-74
2024/02/14 17:12:42;;;;;;;;;;;;;;;;;;6311286;28;19920;-74
2024/02/14 17:15:42;;;;;;;;;;;;;;;;;;6350825;28;19915;-73
2024/02/14 17:18:42;;;;;;;;;;;;;;;;;;6351637;28;19908;-74
2024/02/14 17:21:43;;;;;;;;;;;;;;;;;;6325548;28;19920;-74
2024/02/14 17:24:45;;;;;;;;;;;;;;;;;;6324776;28;19912;-74
2024/02/14 17:27:47;;;;;;;;;;;;;;;;;;6318561;28;19907;-74
2024/02/14 17:30:47;;;;;;;;;;;;;;;;;;6325089;28;19998;-74
2024/02/14 17:33:47;;;;;;;;;;;;;;;;;;6325480;28;20317;-74
2024/02/14 17:36:48;;;;;;;;;;;;;;;;;;6320799;28;20283;-74
2024/02/14 17:39:48;;;;;;;;;;;;;;;;;;6304284;28;19912;-76
2024/02/14 17:42:48;;;;;;;;;;;;;;;;;;6325307;28;19904;-76
2024/02/14 17:45:48;;;;;;;;;;;;;;;;;;6319719;28;20326;-79
2024/02/14 17:48:48;;;;;;;;;;;;;;;;;;6325636;28;20323;-79
2024/02/14 17:51:48;;;;;;;;;;;;;;;;;;6319653;28;19927;-80
2024/02/14 17:54:50;;;;;;;;;;;;;;;;;;6310378;28;20250;-80
2024/02/14 17:57:52;;;;;;;;;;;;;;;;;;6311834;28;19963;-80
2024/02/14 18:00:52;;;;;;;;;;;;;;;;;;6316290;28;19916;-80
2024/02/14 18:03:52;;;;;;;;;;;;;;;;;;6308316;28;19908;-79
2024/02/14 18:06:53;;;;;;;;;;;;;;;;;;6315720;28;19915;-86
2024/02/14 18:09:54;;;;;;;;;;;;;;;;;;6312967;28;19912;-86
2024/02/14 18:12:54;;;;;;;;;;;;;;;;;;6329215;28;19931;-81
2024/02/14 18:15:55;;;;;;;;;;;;;;;;;;6321748;28;19912;-82
2024/02/14 18:18:55;;;;;;;;;;;;;;;;;;6321493;28;19912;-81
2024/02/14 18:21:55;;;;;;;;;;;;;;;;;;6308938;28;19927;-82
2024/02/14 18:24:55;;;;;;;;;;;;;;;;;;6323526;28;20282;-84
2024/02/14 18:27:55;;;;;;;;;;;;;;;;;;6312423;28;20407;-82
2024/02/14 18:30:55;;;;;;;;;;;;;;;;;;6319756;28;19917;-80
2024/02/14 18:33:56;;;;;;;;;;;;;;;;;;6331534;28;19912;-80
2024/02/14 18:36:56;;;;;;;;;;;;;;;;;;6309461;28;20378;-80
2024/02/14 18:39:57;;;;;;;;;;;;;;;;;;6310288;28;20077;-80
2024/02/14 18:42:57;;;;;;;;;;;;;;;;;;6312369;28;20253;-79
2024/02/14 18:45:57;;;;;;;;;;;;;;;;;;6317356;28;19930;-79
2024/02/14 18:48:57;;;;;;;;;;;;;;;;;;6301421;28;19912;-80
2024/02/14 18:51:57;;;;;;;;;;;;;;;;;;6317368;28;20348;-77
2024/02/14 18:54:57;;;;;;;;;;;;;;;;;;6308969;28;20303;-77
2024/02/14 18:57:58;;;;;;;;;;;;;;;;;;6312608;28;19908;-76
2024/02/14 19:00:58;;;;;;;;;;;;;;;;;;6321232;28;19956;-76
2024/02/14 19:04:03;;;;;;;;;;;;;;;;;;6317270;28;19908;-77
2024/02/14 19:07:03;;;;;;;;;;;;;;;;;;6320374;28;19912;-76
2024/02/14 19:10:04;;;;;;;;;;;;;;;;;;6322863;28;20054;-75
2024/02/14 19:13:07;;;;;;;;;;;;;;;;;;6325346;28;19943;-76
2024/02/14 19:16:07;;;;;;;;;;;;;;;;;;6307687;28;19990;-78
2024/02/14 19:19:08;;;;;;;;;;;;;;;;;;6300935;28;19913;-78
2024/02/14 19:22:08;;;;;;;;;;;;;;;;;;6317893;28;20375;-78
2024/02/14 19:25:08;;;;;;;;;;;;;;;;;;6313521;28;19915;-77
2024/02/14 19:28:09;;;;;;;;;;;;;;;;;;6298212;28;19912;-78
2024/02/14 19:31:09;;;;;;;;;;;;;;;;;;6313232;28;20352;-78
2024/02/14 19:34:09;;;;;;;;;;;;;;;;;;6309494;28;20288;-78
2024/02/14 19:37:10;;;;;;;;;;;;;;;;;;6320013;28;20243;-77
2024/02/14 19:40:10;;;;;;;;;;;;;;;;;;6295454;28;19919;-78
2024/02/14 19:43:10;;;;;;;;;;;;;;;;;;6313889;28;20369;-78
2024/02/14 19:46:11;;;;;;;;;;;;;;;;;;6318322;28;19915;-78
2024/02/14 19:49:13;;;;;;;;;;;;;;;;;;6316804;28;19908;-78
2024/02/14 19:52:14;;;;;;;;;;;;;;;;;;6316772;28;19912;-78
2024/02/14 19:55:14;;;;;;;;;;;;;;;;;;6314181;28;19912;-78
2024/02/14 19:58:14;;;;;;;;;;;;;;;;;;6307356;28;19916;-78
2024/02/14 20:01:15;;;;;;;;;;;;;;;;;;6302221;28;19920;-78
2024/02/14 20:04:16;;;;;;;;;;;;;;;;;;6305494;28;20336;-78
2024/02/14 20:07:17;;;;;;;;;;;;;;;;;;6302003;28;19920;-79
2024/02/14 20:10:17;;;;;;;;;;;;;;;;;;6311663;28;19977;-78
2024/02/14 20:13:17;;;;;;;;;;;;;;;;;;6322881;28;19926;-78
2024/02/14 20:16:17;;;;;;;;;;;;;;;;;;6316008;28;20352;-78
2024/02/14 20:19:17;;;;;;;;;;;;;;;;;;6325428;28;19908;-78
2024/02/14 20:22:19;;;;;;;;;;;;;;;;;;6301958;28;19908;-78
2024/02/14 20:25:19;;;;;;;;;;;;;;;;;;6312742;28;19994;-78
2024/02/14 20:28:20;;;;;;;;;;;;;;;;;;6315003;28;19915;-78
2024/02/14 20:31:20;;;;;;;;;;;;;;;;;;6292699;28;20309;-78
2024/02/14 20:34:20;;;;;;;;;;;;;;;;;;6309531;28;19915;-78
2024/02/14 20:37:21;;;;;;;;;;;;;;;;;;6312026;28;19943;-78